createdAt,value
2022-10-24T00:00:08.799Z,17.77
2022-10-24T00:00:18.814Z,17.77
2022-10-24T00:00:28.803Z,17.76
2022-10-24T00:00:38.820Z,17.76
2022-10-24T00:00:48.952Z,17.74
2022-10-24T00:00:58.772Z,17.76
2022-10-24T00:01:08.760Z,17.75
2022-10-24T00:01:18.759Z,17.77
2022-10-24T00:01:28.762Z,17.76
2022-10-24T00:01:38.765Z,17.76
2022-10-24T00:01:48.763Z,17.78
2022-10-24T00:01:58.762Z,17.75
2022-10-24T00:02:08.763Z,17.76
2022-10-24T00:02:18.793Z,17.75
2022-10-24T00:02:28.789Z,17.76
2022-10-24T00:02:38.820Z,17.76
2022-10-24T00:02:48.875Z,17.76
2022-10-24T00:02:58.861Z,17.76
2022-10-24T00:03:08.833Z,17.76
2022-10-24T00:03:18.767Z,17.76
2022-10-24T00:03:28.769Z,17.76
2022-10-24T00:03:38.772Z,17.76
2022-10-24T00:03:48.770Z,17.77
2022-10-24T00:03:58.795Z,17.76
2022-10-24T00:04:08.773Z,17.76
2022-10-24T00:04:18.774Z,17.75
2022-10-24T00:04:28.772Z,17.75
2022-10-24T00:04:38.778Z,17.76
2022-10-24T00:04:48.775Z,17.76
2022-10-24T00:04:58.777Z,17.77
2022-10-24T00:05:08.800Z,17.75
2022-10-24T00:05:18.783Z,17.76
2022-10-24T00:05:28.780Z,17.75
2022-10-24T00:05:38.782Z,17.77
2022-10-24T00:05:48.782Z,17.77
2022-10-24T00:05:58.788Z,17.77
2022-10-24T00:06:08.786Z,17.78
2022-10-24T00:06:18.784Z,17.76
2022-10-24T00:06:28.785Z,17.77
2022-10-24T00:06:38.788Z,17.77
2022-10-24T00:06:48.792Z,17.77
2022-10-24T00:06:58.789Z,17.76
2022-10-24T00:07:08.789Z,17.76
2022-10-24T00:07:18.800Z,17.76
2022-10-24T00:07:28.791Z,17.76
2022-10-24T00:07:38.791Z,17.77
2022-10-24T00:07:48.800Z,17.76
2022-10-24T00:07:58.795Z,17.76
2022-10-24T00:08:08.792Z,17.76
2022-10-24T00:08:18.795Z,17.76
2022-10-24T00:08:28.793Z,17.76
2022-10-24T00:08:38.798Z,17.77
2022-10-24T00:08:48.793Z,17.76
2022-10-24T00:08:58.795Z,17.76
2022-10-24T00:09:08.797Z,17.75
2022-10-24T00:09:18.797Z,17.76
2022-10-24T00:09:28.798Z,17.78
2022-10-24T00:09:38.796Z,17.75
2022-10-24T00:09:48.798Z,17.76
2022-10-24T00:09:58.801Z,17.77
2022-10-24T00:10:08.801Z,17.77
2022-10-24T00:10:18.804Z,17.76
2022-10-24T00:10:28.803Z,17.77
2022-10-24T00:10:38.803Z,17.78
2022-10-24T00:10:48.803Z,17.76
2022-10-24T00:10:58.790Z,17.76
2022-10-24T00:11:08.806Z,17.76
2022-10-24T00:11:18.805Z,17.75
2022-10-24T00:11:28.805Z,17.76
2022-10-24T00:11:38.811Z,17.76
2022-10-24T00:11:48.808Z,17.78
2022-10-24T00:11:58.794Z,17.77
2022-10-24T00:12:08.811Z,17.76
2022-10-24T00:12:18.852Z,17.77
2022-10-24T00:12:28.812Z,17.77
2022-10-24T00:12:38.815Z,17.77
2022-10-24T00:12:48.800Z,17.77
2022-10-24T00:12:58.821Z,17.77
2022-10-24T00:13:08.822Z,17.77
2022-10-24T00:13:18.818Z,17.77
2022-10-24T00:13:28.829Z,17.78
2022-10-24T00:13:38.818Z,17.77
2022-10-24T00:13:48.816Z,17.77
2022-10-24T00:13:58.821Z,17.77
2022-10-24T00:14:08.819Z,17.78
2022-10-24T00:14:18.819Z,17.77
2022-10-24T00:14:28.825Z,17.78
2022-10-24T00:14:38.820Z,17.76
2022-10-24T00:14:48.822Z,17.75
2022-10-24T00:14:58.825Z,17.76
2022-10-24T00:15:08.821Z,17.76
2022-10-24T00:15:18.824Z,17.76
2022-10-24T00:15:28.826Z,17.78
2022-10-24T00:15:38.824Z,17.75
2022-10-24T00:15:48.827Z,17.77
2022-10-24T00:15:58.825Z,17.78
2022-10-24T00:16:08.827Z,17.77
2022-10-24T00:16:18.831Z,17.77
2022-10-24T00:16:28.831Z,17.76
2022-10-24T00:16:38.831Z,17.78
2022-10-24T00:16:48.834Z,17.77
2022-10-24T00:16:58.830Z,17.76
2022-10-24T00:17:08.836Z,17.77
2022-10-24T00:17:18.832Z,17.78
2022-10-24T00:17:28.839Z,17.76
2022-10-24T00:17:38.818Z,17.76
2022-10-24T00:17:48.834Z,17.77
2022-10-24T00:17:58.839Z,17.79
2022-10-24T00:18:08.844Z,17.76
2022-10-24T00:18:18.820Z,17.77
2022-10-24T00:18:28.842Z,17.78
2022-10-24T00:18:38.821Z,17.76
2022-10-24T00:18:48.837Z,17.78
2022-10-24T00:18:58.837Z,17.76
2022-10-24T00:19:08.824Z,17.76
2022-10-24T00:19:18.840Z,17.77
2022-10-24T00:19:28.826Z,17.76
2022-10-24T00:19:38.841Z,17.75
2022-10-24T00:19:48.845Z,17.75
2022-10-24T00:19:58.871Z,17.76
2022-10-24T00:20:08.845Z,17.76
2022-10-24T00:20:18.846Z,17.77
2022-10-24T00:20:28.846Z,17.76
2022-10-24T00:20:38.864Z,17.77
2022-10-24T00:20:48.850Z,17.75
2022-10-24T00:20:58.848Z,17.76
2022-10-24T00:21:08.847Z,17.77
2022-10-24T00:21:18.846Z,17.76
2022-10-24T00:21:28.850Z,17.75
2022-10-24T00:21:38.833Z,17.77
2022-10-24T00:21:48.856Z,17.75
2022-10-24T00:21:58.853Z,17.75
2022-10-24T00:22:08.851Z,17.76
2022-10-24T00:22:18.852Z,17.76
2022-10-24T00:22:28.849Z,17.76
2022-10-24T00:22:38.852Z,17.76
2022-10-24T00:22:48.854Z,17.77
2022-10-24T00:22:58.858Z,17.76
2022-10-24T00:23:08.855Z,17.74
2022-10-24T00:23:18.857Z,17.76
2022-10-24T00:23:28.859Z,17.75
2022-10-24T00:23:38.858Z,17.76
2022-10-24T00:23:48.866Z,17.76
2022-10-24T00:23:58.863Z,17.76
2022-10-24T00:24:08.862Z,17.75
2022-10-24T00:24:18.864Z,17.73
2022-10-24T00:24:28.866Z,17.74
2022-10-24T00:24:38.863Z,17.75
2022-10-24T00:24:48.864Z,17.74
2022-10-24T00:24:58.864Z,17.75
2022-10-24T00:25:08.863Z,17.75
2022-10-24T00:25:18.865Z,17.75
2022-10-24T00:25:28.869Z,17.75
2022-10-24T00:25:38.866Z,17.76
2022-10-24T00:25:48.865Z,17.76
2022-10-24T00:25:58.870Z,17.76
2022-10-24T00:26:08.866Z,17.76
2022-10-24T00:26:18.871Z,17.76
2022-10-24T00:26:28.875Z,17.76
2022-10-24T00:26:38.872Z,17.76
2022-10-24T00:26:48.872Z,17.75
2022-10-24T00:26:58.901Z,17.74
2022-10-24T00:27:08.874Z,17.76
2022-10-24T00:27:18.874Z,17.76
2022-10-24T00:27:28.880Z,17.75
2022-10-24T00:27:38.878Z,17.75
2022-10-24T00:27:48.878Z,17.75
2022-10-24T00:27:58.894Z,17.77
2022-10-24T00:28:08.881Z,17.76
2022-10-24T00:28:18.879Z,17.77
2022-10-24T00:28:28.878Z,17.77
2022-10-24T00:28:38.878Z,17.75
2022-10-24T00:28:48.921Z,17.76
2022-10-24T00:28:58.880Z,17.76
2022-10-24T00:29:08.885Z,17.76
2022-10-24T00:29:18.874Z,17.76
2022-10-24T00:29:28.883Z,17.74
2022-10-24T00:29:38.885Z,17.75
2022-10-24T00:29:48.886Z,17.74
2022-10-24T00:29:58.884Z,17.73
2022-10-24T00:30:08.890Z,17.75
2022-10-24T00:30:18.888Z,17.74
2022-10-24T00:30:28.876Z,17.75
2022-10-24T00:30:38.890Z,17.75
2022-10-24T00:30:48.890Z,17.75
2022-10-24T00:30:58.921Z,17.75
2022-10-24T00:31:08.892Z,17.76
2022-10-24T00:31:18.894Z,17.75
2022-10-24T00:31:28.894Z,17.76
2022-10-24T00:31:38.895Z,17.74
2022-10-24T00:31:48.915Z,17.76
2022-10-24T00:31:58.898Z,17.74
2022-10-24T00:32:08.902Z,17.75
2022-10-24T00:32:18.901Z,17.76
2022-10-24T00:32:28.901Z,17.74
2022-10-24T00:32:38.885Z,17.75
2022-10-24T00:32:48.921Z,17.76
2022-10-24T00:32:58.929Z,17.76
2022-10-24T00:33:08.901Z,17.73
2022-10-24T00:33:18.903Z,17.74
2022-10-24T00:33:28.904Z,17.75
2022-10-24T00:33:38.905Z,17.74
2022-10-24T00:33:48.907Z,17.75
2022-10-24T00:33:58.907Z,17.74
2022-10-24T00:34:08.907Z,17.74
2022-10-24T00:34:18.909Z,17.73
2022-10-24T00:34:28.910Z,17.74
2022-10-24T00:34:38.911Z,17.73
2022-10-24T00:34:48.912Z,17.74
2022-10-24T00:34:58.913Z,17.73
2022-10-24T00:35:08.914Z,17.74
2022-10-24T00:35:18.913Z,17.74
2022-10-24T00:35:28.913Z,17.74
2022-10-24T00:35:38.914Z,17.74
2022-10-24T00:35:48.916Z,17.76
2022-10-24T00:35:58.915Z,17.74
2022-10-24T00:36:08.919Z,17.74
2022-10-24T00:36:18.919Z,17.73
2022-10-24T00:36:28.921Z,17.74
2022-10-24T00:36:38.921Z,17.72
2022-10-24T00:36:48.922Z,17.73
2022-10-24T00:36:58.924Z,17.73
2022-10-24T00:37:08.947Z,17.74
2022-10-24T00:37:28.929Z,17.71
2022-10-24T00:37:38.929Z,17.71
2022-10-24T00:37:48.927Z,17.73
2022-10-24T00:37:59.010Z,17.70
2022-10-24T00:38:08.933Z,17.71
2022-10-24T00:38:18.929Z,17.73
2022-10-24T00:38:28.931Z,17.73
2022-10-24T00:38:38.934Z,17.73
2022-10-24T00:38:48.933Z,17.73
2022-10-24T00:38:58.967Z,17.73
2022-10-24T00:39:08.938Z,17.75
2022-10-24T00:39:18.941Z,17.73
2022-10-24T00:39:28.922Z,17.73
2022-10-24T00:39:38.944Z,17.74
2022-10-24T00:39:48.940Z,17.72
2022-10-24T00:39:58.938Z,17.74
2022-10-24T00:40:08.942Z,17.72
2022-10-24T00:40:18.943Z,17.73
2022-10-24T00:40:28.943Z,17.73
2022-10-24T00:40:38.942Z,17.74
2022-10-24T00:40:48.946Z,17.74
2022-10-24T00:40:58.946Z,17.73
2022-10-24T00:41:08.946Z,17.74
2022-10-24T00:41:18.953Z,17.73
2022-10-24T00:41:28.947Z,17.73
2022-10-24T00:41:38.945Z,17.73
2022-10-24T00:41:48.957Z,17.72
2022-10-24T00:41:58.948Z,17.73
2022-10-24T00:42:08.949Z,17.73
2022-10-24T00:42:18.948Z,17.73
2022-10-24T00:42:28.951Z,17.73
2022-10-24T00:42:38.953Z,17.72
2022-10-24T00:42:48.952Z,17.73
2022-10-24T00:42:58.969Z,17.72
2022-10-24T00:43:08.954Z,17.73
2022-10-24T00:43:18.954Z,17.73
2022-10-24T00:43:28.954Z,17.72
2022-10-24T00:43:38.956Z,17.73
2022-10-24T00:43:48.957Z,17.74
2022-10-24T00:43:58.944Z,17.73
2022-10-24T00:44:08.960Z,17.73
2022-10-24T00:44:18.960Z,17.71
2022-10-24T00:44:28.965Z,17.72
2022-10-24T00:44:38.963Z,17.72
2022-10-24T00:44:48.958Z,17.71
2022-10-24T00:44:58.962Z,17.73
2022-10-24T00:45:08.965Z,17.72
2022-10-24T00:45:18.965Z,17.74
2022-10-24T00:45:29.013Z,17.73
2022-10-24T00:45:38.974Z,17.74
2022-10-24T00:45:48.966Z,17.72
2022-10-24T00:45:58.982Z,17.73
2022-10-24T00:46:08.966Z,17.73
2022-10-24T00:46:18.967Z,17.72
2022-10-24T00:46:28.970Z,17.71
2022-10-24T00:46:38.970Z,17.72
2022-10-24T00:46:48.970Z,17.74
2022-10-24T00:46:58.972Z,17.72
2022-10-24T00:47:08.973Z,17.72
2022-10-24T00:47:18.976Z,17.72
2022-10-24T00:47:28.977Z,17.72
2022-10-24T00:47:38.976Z,17.73
2022-10-24T00:47:48.977Z,17.72
2022-10-24T00:47:58.996Z,17.74
2022-10-24T00:48:08.979Z,17.72
2022-10-24T00:48:19.015Z,17.73
2022-10-24T00:48:28.980Z,17.72
2022-10-24T00:48:38.981Z,17.73
2022-10-24T00:48:48.980Z,17.71
2022-10-24T00:48:58.983Z,17.72
2022-10-24T00:49:08.981Z,17.71
2022-10-24T00:49:18.983Z,17.73
2022-10-24T00:49:28.983Z,17.72
2022-10-24T00:49:38.984Z,17.71
2022-10-24T00:49:48.986Z,17.71
2022-10-24T00:49:58.988Z,17.71
2022-10-24T00:50:08.989Z,17.73
2022-10-24T00:50:18.990Z,17.72
2022-10-24T00:50:28.990Z,17.71
2022-10-24T00:50:38.995Z,17.72
2022-10-24T00:50:48.992Z,17.71
2022-10-24T00:50:58.994Z,17.72
2022-10-24T00:51:08.995Z,17.71
2022-10-24T00:51:18.999Z,17.72
2022-10-24T00:51:28.997Z,17.71
2022-10-24T00:51:38.997Z,17.70
2022-10-24T00:51:48.999Z,17.71
2022-10-24T00:51:59.001Z,17.72
2022-10-24T00:52:09.002Z,17.72
2022-10-24T00:52:19.003Z,17.73
2022-10-24T00:52:29.002Z,17.72
2022-10-24T00:52:39.007Z,17.71
2022-10-24T00:52:49.007Z,17.72
2022-10-24T00:52:59.017Z,17.71
2022-10-24T00:53:09.005Z,17.72
2022-10-24T00:53:19.007Z,17.72
2022-10-24T00:53:29.007Z,17.71
2022-10-24T00:53:39.014Z,17.72
2022-10-24T00:53:49.035Z,17.71
2022-10-24T00:53:59.026Z,17.72
2022-10-24T00:54:09.023Z,17.73
2022-10-24T00:54:19.013Z,17.72
2022-10-24T00:54:29.014Z,17.71
2022-10-24T00:54:39.016Z,17.72
2022-10-24T00:54:48.997Z,17.71
2022-10-24T00:54:59.013Z,17.73
2022-10-24T00:55:09.012Z,17.73
2022-10-24T00:55:19.015Z,17.74
2022-10-24T00:55:29.015Z,17.71
2022-10-24T00:55:39.014Z,17.71
2022-10-24T00:55:49.017Z,17.71
2022-10-24T00:55:59.018Z,17.70
2022-10-24T00:56:09.031Z,17.70
2022-10-24T00:56:19.020Z,17.71
2022-10-24T00:56:29.022Z,17.72
2022-10-24T00:56:39.023Z,17.70
2022-10-24T00:56:49.022Z,17.72
2022-10-24T00:56:59.025Z,17.72
2022-10-24T00:57:09.029Z,17.72
2022-10-24T00:57:19.023Z,17.71
2022-10-24T00:57:29.027Z,17.72
2022-10-24T00:57:39.026Z,17.72
2022-10-24T00:57:49.031Z,17.71
2022-10-24T00:57:59.041Z,17.71
2022-10-24T00:58:09.029Z,17.71
2022-10-24T00:58:19.029Z,17.71
2022-10-24T00:58:29.033Z,17.71
2022-10-24T00:58:39.038Z,17.71
2022-10-24T00:58:49.036Z,17.71
2022-10-24T00:58:59.055Z,17.70
2022-10-24T00:59:09.038Z,17.70
2022-10-24T00:59:19.035Z,17.69
2022-10-24T00:59:29.038Z,17.70
2022-10-24T00:59:39.039Z,17.71
2022-10-24T00:59:49.038Z,17.70
2022-10-24T00:59:59.043Z,17.72
2022-10-24T01:00:09.039Z,17.70
2022-10-24T01:00:19.041Z,17.71
2022-10-24T01:00:29.059Z,17.72
2022-10-24T01:00:39.052Z,17.71
2022-10-24T01:00:49.077Z,17.70
2022-10-24T01:00:59.201Z,17.72
2022-10-24T01:01:09.192Z,17.70
2022-10-24T01:01:19.166Z,17.71
2022-10-24T01:01:29.124Z,17.71
2022-10-24T01:01:39.075Z,17.71
2022-10-24T01:01:49.082Z,17.70
2022-10-24T01:01:59.044Z,17.69
2022-10-24T01:02:09.075Z,17.70
2022-10-24T01:02:19.056Z,17.70
2022-10-24T01:02:29.049Z,17.70
2022-10-24T01:02:39.058Z,17.69
2022-10-24T01:02:49.048Z,17.69
2022-10-24T01:02:59.060Z,17.70
2022-10-24T01:03:09.051Z,17.68
2022-10-24T01:03:19.049Z,17.71
2022-10-24T01:03:29.052Z,17.70
2022-10-24T01:03:39.051Z,17.70
2022-10-24T01:03:49.039Z,17.70
2022-10-24T01:03:59.053Z,17.70
2022-10-24T01:04:09.053Z,17.70
2022-10-24T01:04:19.055Z,17.72
2022-10-24T01:04:29.054Z,17.71
2022-10-24T01:04:39.054Z,17.71
2022-10-24T01:04:49.055Z,17.72
2022-10-24T01:04:59.058Z,17.71
2022-10-24T01:05:09.061Z,17.71
2022-10-24T01:05:19.059Z,17.71
2022-10-24T01:05:29.062Z,17.71
2022-10-24T01:05:39.063Z,17.72
2022-10-24T01:05:49.050Z,17.71
2022-10-24T01:05:59.065Z,17.71
2022-10-24T01:06:09.066Z,17.73
2022-10-24T01:06:19.063Z,17.74
2022-10-24T01:06:29.064Z,17.72
2022-10-24T01:06:39.065Z,17.72
2022-10-24T01:06:49.072Z,17.72
2022-10-24T01:06:59.067Z,17.72
2022-10-24T01:07:09.066Z,17.72
2022-10-24T01:07:19.067Z,17.71
2022-10-24T01:07:29.067Z,17.72
2022-10-24T01:07:39.068Z,17.71
2022-10-24T01:07:49.070Z,17.72
2022-10-24T01:07:59.102Z,17.70
2022-10-24T01:08:09.074Z,17.70
2022-10-24T01:08:19.070Z,17.70
2022-10-24T01:08:29.076Z,17.71
2022-10-24T01:08:39.072Z,17.71
2022-10-24T01:08:49.074Z,17.71
2022-10-24T01:08:59.061Z,17.71
2022-10-24T01:09:09.076Z,17.71
2022-10-24T01:09:19.082Z,17.71
2022-10-24T01:09:29.078Z,17.70
2022-10-24T01:09:39.077Z,17.70
2022-10-24T01:09:49.078Z,17.69
2022-10-24T01:09:59.091Z,17.68
2022-10-24T01:10:09.081Z,17.70
2022-10-24T01:10:19.070Z,17.70
2022-10-24T01:10:29.139Z,17.69
2022-10-24T01:10:39.084Z,17.68
2022-10-24T01:10:49.083Z,17.71
2022-10-24T01:10:59.114Z,17.69
2022-10-24T01:11:09.084Z,17.70
2022-10-24T01:11:19.083Z,17.70
2022-10-24T01:11:29.085Z,17.71
2022-10-24T01:11:39.084Z,17.72
2022-10-24T01:11:49.102Z,17.72
2022-10-24T01:11:59.089Z,17.70
2022-10-24T01:12:09.086Z,17.71
2022-10-24T01:12:19.088Z,17.72
2022-10-24T01:12:29.088Z,17.72
2022-10-24T01:12:39.103Z,17.71
2022-10-24T01:12:49.095Z,17.70
2022-10-24T01:12:59.114Z,17.70
2022-10-24T01:13:09.093Z,17.69
2022-10-24T01:13:19.091Z,17.70
2022-10-24T01:13:29.092Z,17.69
2022-10-24T01:13:39.093Z,17.70
2022-10-24T01:13:49.093Z,17.71
2022-10-24T01:13:59.100Z,17.71
2022-10-24T01:14:09.095Z,17.70
2022-10-24T01:14:19.096Z,17.71
2022-10-24T01:14:29.098Z,17.70
2022-10-24T01:14:39.098Z,17.70
2022-10-24T01:14:49.097Z,17.72
2022-10-24T01:14:59.117Z,17.71
2022-10-24T01:15:09.106Z,17.69
2022-10-24T01:15:19.101Z,17.69
2022-10-24T01:15:29.102Z,17.70
2022-10-24T01:15:39.103Z,17.72
2022-10-24T01:15:49.102Z,17.71
2022-10-24T01:15:59.107Z,17.71
2022-10-24T01:16:09.108Z,17.70
2022-10-24T01:16:19.107Z,17.71
2022-10-24T01:16:29.106Z,17.69
2022-10-24T01:16:39.110Z,17.70
2022-10-24T01:16:49.117Z,17.70
2022-10-24T01:16:59.109Z,17.70
2022-10-24T01:17:09.112Z,17.71
2022-10-24T01:17:19.111Z,17.71
2022-10-24T01:17:29.113Z,17.72
2022-10-24T01:17:39.114Z,17.69
2022-10-24T01:17:49.116Z,17.71
2022-10-24T01:17:59.128Z,17.72
2022-10-24T01:18:09.116Z,17.69
2022-10-24T01:18:19.116Z,17.70
2022-10-24T01:18:29.115Z,17.70
2022-10-24T01:18:39.117Z,17.71
2022-10-24T01:18:49.170Z,17.71
2022-10-24T01:18:59.121Z,17.71
2022-10-24T01:19:09.123Z,17.71
2022-10-24T01:19:19.131Z,17.71
2022-10-24T01:19:29.127Z,17.70
2022-10-24T01:19:39.123Z,17.70
2022-10-24T01:19:49.124Z,17.68
2022-10-24T01:19:59.127Z,17.69
2022-10-24T01:20:09.128Z,17.70
2022-10-24T01:20:19.128Z,17.70
2022-10-24T01:20:29.130Z,17.69
2022-10-24T01:20:39.129Z,17.71
2022-10-24T01:20:49.137Z,17.71
2022-10-24T01:20:59.131Z,17.71
2022-10-24T01:21:09.133Z,17.70
2022-10-24T01:21:19.131Z,17.70
2022-10-24T01:21:29.135Z,17.72
2022-10-24T01:21:39.136Z,17.71
2022-10-24T01:21:49.136Z,17.71
2022-10-24T01:21:59.138Z,17.70
2022-10-24T01:22:09.139Z,17.71
2022-10-24T01:22:19.141Z,17.70
2022-10-24T01:22:29.139Z,17.71
2022-10-24T01:22:39.142Z,17.72
2022-10-24T01:22:49.141Z,17.73
2022-10-24T01:22:59.155Z,17.71
2022-10-24T01:23:09.144Z,17.70
2022-10-24T01:23:19.144Z,17.70
2022-10-24T01:23:29.148Z,17.71
2022-10-24T01:23:39.147Z,17.70
2022-10-24T01:23:49.146Z,17.70
2022-10-24T01:23:59.147Z,17.71
2022-10-24T01:24:09.149Z,17.70
2022-10-24T01:24:19.149Z,17.72
2022-10-24T01:24:29.151Z,17.74
2022-10-24T01:24:39.149Z,17.72
2022-10-24T01:24:49.151Z,17.71
2022-10-24T01:24:59.153Z,17.72
2022-10-24T01:25:09.154Z,17.72
2022-10-24T01:25:19.157Z,17.72
2022-10-24T01:25:29.156Z,17.73
2022-10-24T01:25:39.159Z,17.73
2022-10-24T01:25:49.160Z,17.71
2022-10-24T01:25:59.158Z,17.73
2022-10-24T01:26:09.162Z,17.71
2022-10-24T01:26:19.162Z,17.72
2022-10-24T01:26:29.163Z,17.71
2022-10-24T01:26:39.170Z,17.71
2022-10-24T01:26:49.164Z,17.70
2022-10-24T01:26:59.166Z,17.70
2022-10-24T01:27:09.261Z,17.70
2022-10-24T01:27:19.167Z,17.69
2022-10-24T01:27:29.169Z,17.72
2022-10-24T01:27:39.171Z,17.70
2022-10-24T01:27:49.169Z,17.69
2022-10-24T01:27:59.220Z,17.71
2022-10-24T01:28:09.173Z,17.70
2022-10-24T01:28:19.174Z,17.70
2022-10-24T01:28:29.172Z,17.69
2022-10-24T01:28:39.172Z,17.70
2022-10-24T01:28:49.179Z,17.70
2022-10-24T01:28:59.173Z,17.70
2022-10-24T01:29:09.177Z,17.71
2022-10-24T01:29:19.174Z,17.72
2022-10-24T01:29:29.178Z,17.71
2022-10-24T01:29:39.181Z,17.70
2022-10-24T01:29:49.177Z,17.70
2022-10-24T01:29:59.180Z,17.71
2022-10-24T01:30:09.187Z,17.71
2022-10-24T01:30:19.184Z,17.70
2022-10-24T01:30:29.184Z,17.71
2022-10-24T01:30:39.191Z,17.70
2022-10-24T01:30:49.169Z,17.72
2022-10-24T01:30:59.184Z,17.71
2022-10-24T01:31:09.184Z,17.71
2022-10-24T01:31:19.186Z,17.71
2022-10-24T01:31:29.184Z,17.70
2022-10-24T01:31:39.189Z,17.70
2022-10-24T01:31:49.189Z,17.71
2022-10-24T01:31:59.190Z,17.71
2022-10-24T01:32:09.190Z,17.70
2022-10-24T01:32:19.193Z,17.72
2022-10-24T01:32:29.191Z,17.70
2022-10-24T01:32:39.194Z,17.71
2022-10-24T01:32:49.192Z,17.70
2022-10-24T01:32:59.195Z,17.71
2022-10-24T01:33:09.199Z,17.71
2022-10-24T01:33:19.197Z,17.72
2022-10-24T01:33:29.197Z,17.71
2022-10-24T01:33:39.195Z,17.71
2022-10-24T01:33:49.198Z,17.72
2022-10-24T01:33:59.200Z,17.72
2022-10-24T01:34:09.200Z,17.71
2022-10-24T01:34:19.202Z,17.71
2022-10-24T01:34:29.201Z,17.72
2022-10-24T01:34:39.202Z,17.71
2022-10-24T01:34:49.203Z,17.71
2022-10-24T01:34:59.225Z,17.70
2022-10-24T01:35:09.204Z,17.70
2022-10-24T01:35:19.268Z,17.71
2022-10-24T01:35:39.206Z,17.72
2022-10-24T01:35:49.206Z,17.72
2022-10-24T01:35:59.210Z,17.71
2022-10-24T01:36:09.209Z,17.72
2022-10-24T01:36:19.209Z,17.70
2022-10-24T01:36:29.210Z,17.71
2022-10-24T01:36:39.210Z,17.73
2022-10-24T01:36:49.213Z,17.72
2022-10-24T01:36:59.213Z,17.72
2022-10-24T01:37:09.211Z,17.70
2022-10-24T01:37:19.213Z,17.71
2022-10-24T01:37:29.211Z,17.71
2022-10-24T01:37:39.215Z,17.72
2022-10-24T01:37:49.212Z,17.71
2022-10-24T01:37:59.232Z,17.72
2022-10-24T01:38:09.217Z,17.71
2022-10-24T01:38:19.201Z,17.71
2022-10-24T01:38:29.217Z,17.71
2022-10-24T01:38:39.217Z,17.70
2022-10-24T01:38:49.216Z,17.71
2022-10-24T01:38:59.218Z,17.70
2022-10-24T01:39:09.223Z,17.70
2022-10-24T01:39:19.220Z,17.71
2022-10-24T01:39:29.223Z,17.69
2022-10-24T01:39:39.221Z,17.71
2022-10-24T01:39:49.234Z,17.71
2022-10-24T01:39:59.225Z,17.71
2022-10-24T01:40:09.222Z,17.71
2022-10-24T01:40:19.221Z,17.71
2022-10-24T01:40:29.224Z,17.72
2022-10-24T01:40:39.225Z,17.72
2022-10-24T01:40:49.225Z,17.70
2022-10-24T01:40:59.222Z,17.71
2022-10-24T01:41:09.226Z,17.71
2022-10-24T01:41:19.228Z,17.71
2022-10-24T01:41:29.230Z,17.71
2022-10-24T01:41:39.231Z,17.72
2022-10-24T01:41:49.231Z,17.71
2022-10-24T01:41:59.230Z,17.70
2022-10-24T01:42:09.233Z,17.73
2022-10-24T01:42:19.231Z,17.71
2022-10-24T01:42:29.237Z,17.70
2022-10-24T01:42:39.234Z,17.72
2022-10-24T01:42:49.240Z,17.71
2022-10-24T01:42:59.265Z,17.72
2022-10-24T01:43:09.238Z,17.71
2022-10-24T01:43:19.237Z,17.71
2022-10-24T01:43:29.235Z,17.73
2022-10-24T01:43:39.239Z,17.73
2022-10-24T01:43:49.293Z,17.71
2022-10-24T01:43:59.241Z,17.71
2022-10-24T01:44:09.241Z,17.73
2022-10-24T01:44:19.242Z,17.70
2022-10-24T01:44:29.243Z,17.71
2022-10-24T01:44:39.241Z,17.72
2022-10-24T01:44:49.244Z,17.71
2022-10-24T01:44:59.245Z,17.72
2022-10-24T01:45:09.249Z,17.73
2022-10-24T01:45:19.247Z,17.72
2022-10-24T01:45:29.248Z,17.72
2022-10-24T01:45:39.253Z,17.73
2022-10-24T01:45:49.250Z,17.73
2022-10-24T01:45:59.252Z,17.72
2022-10-24T01:46:09.251Z,17.72
2022-10-24T01:46:19.252Z,17.74
2022-10-24T01:46:29.253Z,17.74
2022-10-24T01:46:39.253Z,17.73
2022-10-24T01:46:49.252Z,17.73
2022-10-24T01:46:59.253Z,17.72
2022-10-24T01:47:09.256Z,17.72
2022-10-24T01:47:19.254Z,17.71
2022-10-24T01:47:29.261Z,17.72
2022-10-24T01:47:39.262Z,17.73
2022-10-24T01:47:49.262Z,17.73
2022-10-24T01:47:59.257Z,17.73
2022-10-24T01:48:09.260Z,17.73
2022-10-24T01:48:19.258Z,17.74
2022-10-24T01:48:29.260Z,17.73
2022-10-24T01:48:39.259Z,17.73
2022-10-24T01:48:49.260Z,17.72
2022-10-24T01:48:59.263Z,17.73
2022-10-24T01:49:09.262Z,17.72
2022-10-24T01:49:19.263Z,17.72
2022-10-24T01:49:29.261Z,17.73
2022-10-24T01:49:39.266Z,17.72
2022-10-24T01:49:49.266Z,17.72
2022-10-24T01:49:59.268Z,17.72
2022-10-24T01:50:09.269Z,17.74
2022-10-24T01:50:19.267Z,17.71
2022-10-24T01:50:29.269Z,17.73
2022-10-24T01:50:39.272Z,17.73
2022-10-24T01:50:49.274Z,17.73
2022-10-24T01:50:59.275Z,17.73
2022-10-24T01:51:09.294Z,17.73
2022-10-24T01:51:19.280Z,17.74
2022-10-24T01:51:29.274Z,17.74
2022-10-24T01:51:39.276Z,17.75
2022-10-24T01:51:49.277Z,17.74
2022-10-24T01:51:59.340Z,17.74
2022-10-24T01:52:09.333Z,17.73
2022-10-24T01:52:19.307Z,17.72
2022-10-24T01:52:29.281Z,17.75
2022-10-24T01:52:39.278Z,17.74
2022-10-24T01:52:49.282Z,17.74
2022-10-24T01:52:59.295Z,17.71
2022-10-24T01:53:09.282Z,17.74
2022-10-24T01:53:21.183Z,17.73
2022-10-24T01:53:29.285Z,17.69
2022-10-24T01:53:39.283Z,17.70
2022-10-24T01:53:49.290Z,17.71
2022-10-24T01:53:59.285Z,17.70
2022-10-24T01:54:09.288Z,17.72
2022-10-24T01:54:19.287Z,17.72
2022-10-24T01:54:29.291Z,17.73
2022-10-24T01:54:39.291Z,17.71
2022-10-24T01:54:49.293Z,17.73
2022-10-24T01:54:59.299Z,17.72
2022-10-24T01:55:09.294Z,17.71
2022-10-24T01:55:19.292Z,17.72
2022-10-24T01:55:29.282Z,17.73
2022-10-24T01:55:39.298Z,17.74
2022-10-24T01:55:49.297Z,17.71
2022-10-24T01:55:59.301Z,17.72
2022-10-24T01:56:09.299Z,17.72
2022-10-24T01:56:19.295Z,17.72
2022-10-24T01:56:29.301Z,17.72
2022-10-24T01:56:39.298Z,17.72
2022-10-24T01:56:49.300Z,17.72
2022-10-24T01:56:59.302Z,17.72
2022-10-24T01:57:09.301Z,17.72
2022-10-24T01:57:19.303Z,17.72
2022-10-24T01:57:29.302Z,17.73
2022-10-24T01:57:39.303Z,17.73
2022-10-24T01:57:49.304Z,17.73
2022-10-24T01:57:59.317Z,17.71
2022-10-24T01:58:09.305Z,17.72
2022-10-24T01:58:19.309Z,17.74
2022-10-24T01:58:29.307Z,17.71
2022-10-24T01:58:39.305Z,17.72
2022-10-24T01:58:49.309Z,17.72
2022-10-24T01:58:59.308Z,17.73
2022-10-24T01:59:09.311Z,17.72
2022-10-24T01:59:19.311Z,17.74
2022-10-24T01:59:29.314Z,17.72
2022-10-24T01:59:39.313Z,17.74
2022-10-24T01:59:49.314Z,17.72
2022-10-24T01:59:59.314Z,17.73
2022-10-24T02:00:09.316Z,17.72
2022-10-24T02:00:19.317Z,17.72
2022-10-24T02:00:29.440Z,17.73
2022-10-24T02:00:39.513Z,17.72
2022-10-24T02:00:49.327Z,17.71
2022-10-24T02:00:59.339Z,17.72
2022-10-24T02:01:09.400Z,17.69
2022-10-24T02:01:19.392Z,17.73
2022-10-24T02:01:29.392Z,17.72
2022-10-24T02:01:39.399Z,17.71
2022-10-24T02:01:49.353Z,17.73
2022-10-24T02:01:59.322Z,17.71
2022-10-24T02:02:09.327Z,17.73
2022-10-24T02:02:19.323Z,17.72
2022-10-24T02:02:29.327Z,17.74
2022-10-24T02:02:39.330Z,17.74
2022-10-24T02:02:49.325Z,17.71
2022-10-24T02:02:59.337Z,17.72
2022-10-24T02:03:09.329Z,17.73
2022-10-24T02:03:19.329Z,17.71
2022-10-24T02:03:29.329Z,17.72
2022-10-24T02:03:39.325Z,17.73
2022-10-24T02:03:49.330Z,17.73
2022-10-24T02:03:59.330Z,17.74
2022-10-24T02:04:09.333Z,17.74
2022-10-24T02:04:19.330Z,17.74
2022-10-24T02:04:29.333Z,17.72
2022-10-24T02:04:39.332Z,17.72
2022-10-24T02:04:49.333Z,17.72
2022-10-24T02:04:59.337Z,17.72
2022-10-24T02:05:09.340Z,17.72
2022-10-24T02:05:19.338Z,17.74
2022-10-24T02:05:29.337Z,17.72
2022-10-24T02:05:39.337Z,17.72
2022-10-24T02:05:49.337Z,17.71
2022-10-24T02:05:59.339Z,17.71
2022-10-24T02:06:09.336Z,17.72
2022-10-24T02:06:19.343Z,17.72
2022-10-24T02:06:29.351Z,17.74
2022-10-24T02:06:39.338Z,17.72
2022-10-24T02:06:49.340Z,17.73
2022-10-24T02:06:59.356Z,17.73
2022-10-24T02:07:09.342Z,17.73
2022-10-24T02:07:19.343Z,17.73
2022-10-24T02:07:29.341Z,17.73
2022-10-24T02:07:39.343Z,17.72
2022-10-24T02:07:49.346Z,17.73
2022-10-24T02:07:59.357Z,17.72
2022-10-24T02:08:09.348Z,17.74
2022-10-24T02:08:19.349Z,17.72
2022-10-24T02:08:29.347Z,17.73
2022-10-24T02:08:39.363Z,17.74
2022-10-24T02:08:49.349Z,17.73
2022-10-24T02:08:59.420Z,17.74
2022-10-24T02:09:09.352Z,17.74